createdAt,value
2023-01-26T00:01:11.937Z,98747.34
2023-01-26T00:03:38.701Z,98746.81
2023-01-26T00:06:06.845Z,98739.84
2023-01-26T00:08:44.760Z,98732.38
2023-01-26T00:11:13.669Z,98734.41
2023-01-26T00:13:40.866Z,98729.59
2023-01-26T00:16:12.682Z,98725.00
2023-01-26T00:18:40.333Z,98723.88
2023-01-26T00:21:08.533Z,98721.78
2023-01-26T00:23:35.711Z,98716.41
2023-01-26T00:26:05.368Z,98705.44
2023-01-26T00:28:31.763Z,98707.78
2023-01-26T00:31:11.790Z,98704.03
2023-01-26T00:33:38.164Z,98701.25
2023-01-26T00:36:05.229Z,98691.84
2023-01-26T00:38:32.007Z,98689.69
2023-01-26T00:40:58.468Z,98671.28
2023-01-26T00:43:24.806Z,98664.91
2023-01-26T00:45:51.410Z,98664.06
2023-01-26T00:48:17.900Z,98668.66
2023-01-26T00:50:44.353Z,98670.22
2023-01-26T00:53:10.849Z,98661.66
2023-01-26T00:55:37.417Z,98658.72
2023-01-26T00:58:06.553Z,98657.59
2023-01-26T01:00:34.724Z,98654.44
2023-01-26T01:03:01.412Z,98651.16
2023-01-26T01:05:30.117Z,98649.34
2023-01-26T01:07:57.079Z,98648.53
2023-01-26T01:10:24.945Z,98643.56
2023-01-26T01:12:51.319Z,98638.59
2023-01-26T01:15:17.675Z,98639.69
2023-01-26T01:17:44.187Z,98634.19
2023-01-26T01:20:11.997Z,98627.66
2023-01-26T01:22:39.215Z,98630.28
2023-01-26T01:25:05.843Z,98627.50
2023-01-26T01:27:32.412Z,98623.59
2023-01-26T01:29:58.805Z,98628.56
2023-01-26T01:32:25.120Z,98622.47
2023-01-26T01:34:51.589Z,98623.59
2023-01-26T01:37:18.316Z,98619.69
2023-01-26T01:39:44.810Z,98616.78
2023-01-26T01:42:11.420Z,98616.47
2023-01-26T01:44:38.924Z,98610.94
2023-01-26T01:47:23.234Z,98615.13
2023-01-26T01:49:52.790Z,98615.41
2023-01-26T01:52:26.093Z,98611.00
2023-01-26T01:54:56.310Z,98613.84
2023-01-26T01:57:26.922Z,98607.75
2023-01-26T02:00:14.420Z,98610.75
2023-01-26T02:02:43.293Z,98609.44
2023-01-26T02:05:26.744Z,98613.53
2023-01-26T02:07:54.271Z,98616.50
2023-01-26T02:10:21.482Z,98611.53
2023-01-26T02:12:50.520Z,98612.94
2023-01-26T02:15:16.901Z,98605.22
2023-01-26T02:17:43.720Z,98611.13
2023-01-26T02:20:25.597Z,98615.81
2023-01-26T02:23:20.749Z,98605.53
2023-01-26T02:25:50.169Z,98598.19
2023-01-26T02:28:17.915Z,98601.94
2023-01-26T02:30:45.825Z,98599.38
2023-01-26T02:33:27.063Z,98596.38
2023-01-26T02:35:53.391Z,98590.69
2023-01-26T02:38:22.371Z,98592.50
2023-01-26T02:41:11.210Z,98587.69
2023-01-26T02:43:37.535Z,98586.84
2023-01-26T02:46:04.441Z,98584.81
2023-01-26T02:48:30.780Z,98576.56
2023-01-26T02:50:57.345Z,98576.84
2023-01-26T02:53:23.943Z,98579.47
2023-01-26T02:55:50.421Z,98581.25
2023-01-26T02:58:16.884Z,98580.16
2023-01-26T03:00:43.495Z,98567.41
2023-01-26T03:03:22.348Z,98574.25
2023-01-26T03:05:48.990Z,98567.34
2023-01-26T03:08:15.304Z,98564.28
2023-01-26T03:10:42.159Z,98568.78
2023-01-26T03:13:08.762Z,98558.81
2023-01-26T03:15:35.207Z,98556.19
2023-01-26T03:18:07.363Z,98553.97
2023-01-26T03:20:33.707Z,98549.53
2023-01-26T03:23:00.211Z,98548.72
2023-01-26T03:25:26.639Z,98555.09
2023-01-26T03:27:53.000Z,98559.09
2023-01-26T03:30:19.458Z,98555.13
2023-01-26T03:32:46.222Z,98546.28
2023-01-26T03:35:12.690Z,98541.25
2023-01-26T03:37:39.524Z,98538.88
2023-01-26T03:40:06.708Z,98544.66
2023-01-26T03:42:33.402Z,98544.13
2023-01-26T03:44:59.904Z,98543.75
2023-01-26T03:47:26.281Z,98541.00
2023-01-26T03:49:52.694Z,98538.06
2023-01-26T03:52:19.030Z,98533.09
2023-01-26T03:54:45.726Z,98528.38
2023-01-26T03:57:12.224Z,98533.88
2023-01-26T03:59:38.780Z,98536.72
2023-01-26T04:02:10.674Z,98523.13
2023-01-26T04:04:36.987Z,98540.13
2023-01-26T04:07:03.289Z,98524.66
2023-01-26T04:09:29.678Z,98529.91
2023-01-26T04:11:57.475Z,98533.41
2023-01-26T04:14:24.175Z,98534.53
2023-01-26T04:16:50.615Z,98530.94
2023-01-26T04:19:17.019Z,98532.34
2023-01-26T04:21:43.782Z,98530.03
2023-01-26T04:24:10.131Z,98530.56
2023-01-26T04:26:37.097Z,98534.09
2023-01-26T04:29:08.516Z,98535.09
2023-01-26T04:31:35.301Z,98532.00
2023-01-26T04:34:03.542Z,98528.81
2023-01-26T04:36:30.178Z,98532.03
2023-01-26T04:38:56.999Z,98527.75
2023-01-26T04:41:23.631Z,98531.34
2023-01-26T04:43:50.138Z,98541.59
2023-01-26T04:46:16.559Z,98528.47
2023-01-26T04:48:43.313Z,98532.22
2023-01-26T04:51:17.875Z,98530.75
2023-01-26T04:53:44.438Z,98524.44
2023-01-26T04:56:16.984Z,98522.78
2023-01-26T04:58:43.549Z,98518.38
2023-01-26T05:01:10.054Z,98524.28
2023-01-26T05:03:36.541Z,98521.28
2023-01-26T05:06:03.123Z,98522.25
2023-01-26T05:08:29.469Z,98517.16
2023-01-26T05:10:55.794Z,98511.19
2023-01-26T05:13:22.101Z,98510.78
2023-01-26T05:15:48.407Z,98519.47
2023-01-26T05:18:14.788Z,98522.25
2023-01-26T05:20:41.065Z,98529.97
2023-01-26T05:23:07.465Z,98520.31
2023-01-26T05:25:33.925Z,98532.06
2023-01-26T05:28:00.201Z,98538.03
2023-01-26T05:30:26.907Z,98528.50
2023-01-26T05:32:53.309Z,98530.97
2023-01-26T05:35:19.705Z,98529.88
2023-01-26T05:37:46.008Z,98534.69
2023-01-26T05:40:13.630Z,98535.50
2023-01-26T05:42:41.976Z,98534.34
2023-01-26T05:45:08.764Z,98535.41
2023-01-26T05:47:35.086Z,98540.41
2023-01-26T05:50:01.468Z,98531.25
2023-01-26T05:52:27.800Z,98531.94
2023-01-26T05:54:54.097Z,98530.97
2023-01-26T05:57:20.444Z,98531.25
2023-01-26T05:59:46.742Z,98528.78
2023-01-26T06:02:13.204Z,98539.84
2023-01-26T06:04:39.742Z,98540.25
2023-01-26T06:07:06.090Z,98536.00
2023-01-26T06:09:32.564Z,98534.72
2023-01-26T06:11:59.012Z,98539.16
2023-01-26T06:14:25.372Z,98531.72
2023-01-26T06:16:51.707Z,98532.25
2023-01-26T06:19:17.982Z,98529.13
2023-01-26T06:21:44.382Z,98525.97
2023-01-26T06:24:10.983Z,98525.56
2023-01-26T06:26:37.288Z,98524.34
2023-01-26T06:29:03.729Z,98529.72
2023-01-26T06:31:30.228Z,98534.72
2023-01-26T06:33:56.598Z,98531.69
2023-01-26T06:36:23.053Z,98536.13
2023-01-26T06:38:51.119Z,98537.88
2023-01-26T06:41:17.746Z,98525.44
2023-01-26T06:43:46.406Z,98531.09
2023-01-26T06:46:13.290Z,98535.91
2023-01-26T06:48:39.777Z,98537.56
2023-01-26T06:51:44.314Z,98528.59
2023-01-26T06:54:11.109Z,98527.06
2023-01-26T06:56:37.844Z,98531.75
2023-01-26T06:59:04.796Z,98532.84
2023-01-26T07:01:35.601Z,98534.63
2023-01-26T07:04:02.337Z,98530.75
2023-01-26T07:06:28.795Z,98526.19
2023-01-26T07:08:55.080Z,98517.59
2023-01-26T07:11:21.363Z,98525.41
2023-01-26T07:13:47.640Z,98527.06
2023-01-26T07:16:16.372Z,98531.97
2023-01-26T07:18:43.159Z,98533.28
2023-01-26T07:21:15.463Z,98529.47
2023-01-26T07:23:41.911Z,98527.94
2023-01-26T07:26:08.353Z,98522.94
2023-01-26T07:28:34.945Z,98525.22
2023-01-26T07:31:02.440Z,98528.00
2023-01-26T07:33:29.068Z,98525.63
2023-01-26T07:35:56.750Z,98526.44
2023-01-26T07:38:23.655Z,98532.09
2023-01-26T07:40:50.273Z,98521.59
2023-01-26T07:43:16.809Z,98518.81
2023-01-26T07:45:47.744Z,98517.16
2023-01-26T07:48:14.064Z,98516.25
2023-01-26T07:50:40.367Z,98516.38
2023-01-26T07:53:06.659Z,98520.94
2023-01-26T07:55:32.991Z,98513.34
2023-01-26T07:57:59.296Z,98515.13
2023-01-26T08:00:25.589Z,98515.00
2023-01-26T08:02:52.247Z,98510.63
2023-01-26T08:05:18.671Z,98511.31
2023-01-26T08:07:45.082Z,98514.09
2023-01-26T08:10:12.007Z,98516.19
2023-01-26T08:12:40.916Z,98513.41
2023-01-26T08:15:08.000Z,98515.06
2023-01-26T08:17:34.310Z,98510.19
2023-01-26T08:20:00.678Z,98512.97
2023-01-26T08:22:26.960Z,98512.13
2023-01-26T08:24:53.298Z,98519.78
2023-01-26T08:27:19.632Z,98508.91
2023-01-26T08:29:45.956Z,98515.69
2023-01-26T08:32:12.396Z,98512.25
2023-01-26T08:34:38.694Z,98509.88
2023-01-26T08:37:04.978Z,98512.50
2023-01-26T08:39:31.304Z,98511.56
2023-01-26T08:41:57.622Z,98513.63
2023-01-26T08:44:23.964Z,98513.84
2023-01-26T08:46:50.259Z,98512.13
2023-01-26T08:49:16.836Z,98513.84
2023-01-26T08:51:43.199Z,98506.88
2023-01-26T08:54:09.504Z,98511.84
2023-01-26T08:56:35.967Z,98512.94
2023-01-26T08:59:02.344Z,98511.69
2023-01-26T09:01:28.687Z,98518.44
2023-01-26T09:03:55.016Z,98512.94
2023-01-26T09:06:21.327Z,98512.25
2023-01-26T09:08:47.954Z,98509.19
2023-01-26T09:11:14.671Z,98510.72
2023-01-26T09:13:41.054Z,98507.00
2023-01-26T09:16:19.581Z,98506.28
2023-01-26T09:18:49.610Z,98504.72
2023-01-26T09:21:15.965Z,98508.66
2023-01-26T09:23:42.265Z,98514.09
2023-01-26T09:26:08.687Z,98508.66
2023-01-26T09:28:35.130Z,98517.41
2023-01-26T09:31:06.108Z,98524.00
2023-01-26T09:33:32.969Z,98533.16
2023-01-26T09:36:11.219Z,98523.56
2023-01-26T09:38:38.306Z,98531.06
2023-01-26T09:41:17.886Z,98526.78
2023-01-26T09:43:58.002Z,98534.25
2023-01-26T09:46:26.250Z,98532.19
2023-01-26T09:49:05.173Z,98530.38
2023-01-26T09:51:47.784Z,98535.78
2023-01-26T09:54:43.579Z,98527.59
2023-01-26T09:57:16.291Z,98524.69
2023-01-26T09:59:55.195Z,98524.00
2023-01-26T10:02:41.683Z,98521.22
2023-01-26T10:05:29.109Z,98523.56
2023-01-26T10:07:55.484Z,98526.41
2023-01-26T10:10:34.680Z,98524.66
2023-01-26T10:13:01.962Z,98518.53
2023-01-26T10:15:36.875Z,98516.47
2023-01-26T10:18:08.058Z,98526.34
2023-01-26T10:20:39.941Z,98528.88
2023-01-26T10:23:16.196Z,98532.47
2023-01-26T10:25:44.797Z,98518.22
2023-01-26T10:28:27.573Z,98517.00
2023-01-26T10:31:02.037Z,98520.31
2023-01-26T10:33:35.790Z,98514.00
2023-01-26T10:36:05.198Z,98518.66
2023-01-26T10:38:37.485Z,98518.53
2023-01-26T10:41:06.645Z,98523.31
2023-01-26T10:43:37.542Z,98518.53
2023-01-26T10:46:04.766Z,98516.91
2023-01-26T10:48:31.417Z,98504.75
2023-01-26T10:51:19.913Z,98501.66
2023-01-26T10:53:46.223Z,98507.84
2023-01-26T10:56:16.423Z,98506.44
2023-01-26T10:59:01.769Z,98494.69
2023-01-26T11:01:28.213Z,98498.66
2023-01-26T11:04:07.128Z,98490.53
2023-01-26T11:06:33.816Z,98495.22
2023-01-26T11:09:15.063Z,98490.63
2023-01-26T11:11:41.925Z,98495.03
2023-01-26T11:14:12.326Z,98490.47
2023-01-26T11:16:38.684Z,98487.94
2023-01-26T11:19:16.905Z,98476.72
2023-01-26T11:22:04.985Z,98481.63
2023-01-26T11:24:42.507Z,98482.41
2023-01-26T11:27:32.390Z,98475.31
2023-01-26T11:30:18.815Z,98477.50
2023-01-26T11:33:04.744Z,98468.81
2023-01-26T11:35:41.703Z,98464.69
2023-01-26T11:38:21.589Z,98460.00
2023-01-26T11:41:09.400Z,98463.59
2023-01-26T11:43:54.104Z,98466.78
2023-01-26T11:46:24.644Z,98458.94
2023-01-26T11:49:21.416Z,98457.19
2023-01-26T11:51:54.225Z,98445.81
2023-01-26T11:54:56.060Z,98441.91
2023-01-26T11:57:43.448Z,98432.91
2023-01-26T12:00:29.628Z,98439.75
2023-01-26T12:03:04.061Z,98421.28
2023-01-26T12:05:54.336Z,98434.28
2023-01-26T12:08:31.293Z,98432.25
2023-01-26T12:11:17.750Z,98438.38
2023-01-26T12:13:47.810Z,98439.88
2023-01-26T12:16:21.162Z,98436.78
2023-01-26T12:19:10.853Z,98428.09
2023-01-26T12:21:40.889Z,98426.97
2023-01-26T12:24:36.039Z,98419.66
2023-01-26T12:27:06.435Z,98418.47
2023-01-26T12:29:46.915Z,98417.41
2023-01-26T12:32:14.706Z,98412.97
2023-01-26T12:34:41.106Z,98406.41
2023-01-26T12:37:25.649Z,98402.44
2023-01-26T12:40:09.466Z,98398.66
2023-01-26T12:42:45.157Z,98405.44
2023-01-26T12:45:32.697Z,98400.50
2023-01-26T12:48:13.533Z,98395.31
2023-01-26T12:50:47.205Z,98395.97
2023-01-26T12:53:23.067Z,98389.47
2023-01-26T12:55:59.406Z,98387.97
2023-01-26T12:58:32.677Z,98385.19
2023-01-26T13:01:09.381Z,98386.50
2023-01-26T13:03:57.783Z,98392.59
2023-01-26T13:06:26.761Z,98387.66
2023-01-26T13:09:02.678Z,98381.56
2023-01-26T13:11:55.508Z,98388.59
2023-01-26T13:14:42.832Z,98380.00
2023-01-26T13:17:15.151Z,98374.16
2023-01-26T13:19:44.474Z,98383.22
2023-01-26T13:22:23.121Z,98382.50
2023-01-26T13:24:55.665Z,98386.41
2023-01-26T13:27:40.101Z,98381.56
2023-01-26T13:30:21.698Z,98382.69
2023-01-26T13:32:47.968Z,98379.25
2023-01-26T13:35:19.329Z,98379.41
2023-01-26T13:38:09.595Z,98392.31
2023-01-26T13:40:40.035Z,98385.66
2023-01-26T13:43:28.245Z,98395.19
2023-01-26T13:46:14.996Z,98392.41
2023-01-26T13:48:51.846Z,98385.03
2023-01-26T13:51:25.961Z,98391.31
2023-01-26T13:53:57.644Z,98383.16
2023-01-26T13:56:40.419Z,98379.16
2023-01-26T13:59:11.633Z,98375.06
2023-01-26T14:01:43.171Z,98376.94
2023-01-26T14:04:14.837Z,98376.03
2023-01-26T14:06:43.626Z,98378.28
2023-01-26T14:09:13.462Z,98376.84
2023-01-26T14:11:39.939Z,98384.97
2023-01-26T14:14:06.893Z,98383.41
2023-01-26T14:16:35.945Z,98388.59
2023-01-26T14:19:17.371Z,98386.50
2023-01-26T14:21:55.836Z,98384.94
2023-01-26T14:24:36.602Z,98383.22
2023-01-26T14:27:03.321Z,98386.09
2023-01-26T14:29:30.892Z,98388.44
2023-01-26T14:31:59.303Z,98386.84
2023-01-26T14:34:30.500Z,98385.03
2023-01-26T14:37:17.406Z,98393.19
2023-01-26T14:39:44.640Z,98394.69
2023-01-26T14:42:14.630Z,98395.53
2023-01-26T14:44:41.441Z,98399.13
2023-01-26T14:47:30.624Z,98399.56
2023-01-26T14:50:09.942Z,98397.47
2023-01-26T14:52:38.937Z,98397.75
2023-01-26T14:55:12.240Z,98408.41
2023-01-26T14:57:39.411Z,98411.63
2023-01-26T15:00:06.470Z,98416.97
2023-01-26T15:02:38.266Z,98412.06
2023-01-26T15:05:14.260Z,98416.38
2023-01-26T15:07:40.486Z,98423.22
2023-01-26T15:10:37.576Z,98416.72
2023-01-26T15:13:06.411Z,98410.06
2023-01-26T15:15:36.192Z,98408.81
2023-01-26T15:18:14.421Z,98411.13
2023-01-26T15:20:49.355Z,98414.47
2023-01-26T15:23:23.191Z,98414.78
2023-01-26T15:25:50.501Z,98416.03
2023-01-26T15:28:19.659Z,98418.00
2023-01-26T15:30:48.633Z,98417.16
2023-01-26T15:33:53.224Z,98418.09
2023-01-26T15:36:24.304Z,98415.00
2023-01-26T15:38:56.902Z,98419.00
2023-01-26T15:41:23.184Z,98414.13
2023-01-26T15:43:49.451Z,98420.66
2023-01-26T15:46:15.768Z,98421.31
2023-01-26T15:48:42.331Z,98419.97
2023-01-26T15:51:12.896Z,98425.59
2023-01-26T15:53:39.551Z,98425.75
2023-01-26T15:56:06.373Z,98432.00
2023-01-26T15:58:32.698Z,98422.41
2023-01-26T16:00:59.039Z,98434.53
2023-01-26T16:03:25.412Z,98432.31
2023-01-26T16:05:51.688Z,98424.97
2023-01-26T16:08:18.892Z,98425.81
2023-01-26T16:10:46.167Z,98424.16
2023-01-26T16:13:14.891Z,98428.81
2023-01-26T16:15:50.031Z,98428.38
2023-01-26T16:18:17.012Z,98433.34
2023-01-26T16:20:45.715Z,98434.34
2023-01-26T16:23:20.891Z,98433.16
2023-01-26T16:25:47.570Z,98432.31
2023-01-26T16:28:14.111Z,98430.53
2023-01-26T16:30:42.463Z,98436.34
2023-01-26T16:33:12.455Z,98434.69
2023-01-26T16:35:39.275Z,98432.06
2023-01-26T16:38:05.702Z,98438.38
2023-01-26T16:40:32.108Z,98431.03
2023-01-26T16:42:58.547Z,98427.75
2023-01-26T16:45:26.505Z,98427.59
2023-01-26T16:47:56.193Z,98421.09
2023-01-26T16:50:23.508Z,98423.41
2023-01-26T16:52:50.104Z,98419.53
2023-01-26T16:58:38.816Z,98422.56
2023-01-26T17:01:05.552Z,98424.50
2023-01-26T17:03:31.998Z,98421.31
2023-01-26T17:05:58.658Z,98427.94
2023-01-26T17:08:24.944Z,98423.91
2023-01-26T17:11:01.721Z,98427.22
2023-01-26T17:13:29.045Z,98423.78
2023-01-26T17:15:56.712Z,98420.69
2023-01-26T17:18:23.149Z,98426.03
2023-01-26T17:20:49.470Z,98424.38
2023-01-26T17:23:15.853Z,98419.88
2023-01-26T17:25:42.128Z,98429.16
2023-01-26T17:28:08.455Z,98432.91
2023-01-26T17:30:34.833Z,98429.31
2023-01-26T17:33:01.214Z,98427.22
2023-01-26T17:35:27.655Z,98430.66
2023-01-26T17:37:53.896Z,98428.19
2023-01-26T17:40:20.267Z,98430.56
2023-01-26T17:42:46.640Z,98432.94
2023-01-26T17:45:13.212Z,98432.22
2023-01-26T17:47:39.687Z,98428.19
2023-01-26T17:50:06.297Z,98428.81
2023-01-26T17:52:32.586Z,98433.91
2023-01-26T17:54:58.883Z,98422.72
2023-01-26T17:57:25.149Z,98427.31
2023-01-26T17:59:51.407Z,98421.75
2023-01-26T18:02:17.727Z,98420.91
2023-01-26T18:04:44.012Z,98423.25
2023-01-26T18:07:10.424Z,98427.66
2023-01-26T18:09:36.695Z,98433.88
2023-01-26T18:12:03.129Z,98426.00
2023-01-26T18:14:29.387Z,98422.78
2023-01-26T18:16:55.830Z,98428.47
2023-01-26T18:19:22.301Z,98424.59
2023-01-26T18:21:50.871Z,98425.56
2023-01-26T18:24:17.626Z,98418.13
2023-01-26T18:26:44.006Z,98426.91
2023-01-26T18:29:10.375Z,98429.69
2023-01-26T18:31:38.908Z,98424.66
2023-01-26T18:34:05.236Z,98431.31
2023-01-26T18:36:32.899Z,98427.56
2023-01-26T18:39:05.486Z,98436.09
2023-01-26T18:41:31.928Z,98434.88
2023-01-26T18:43:59.458Z,98424.41
2023-01-26T18:46:27.773Z,98429.66
2023-01-26T18:48:55.268Z,98427.31
2023-01-26T18:51:21.697Z,98432.00
2023-01-26T18:53:48.059Z,98431.84
2023-01-26T18:56:16.459Z,98427.44
2023-01-26T18:58:43.225Z,98413.50
2023-01-26T19:01:14.768Z,98421.38
2023-01-26T19:03:42.011Z,98420.53
2023-01-26T19:06:09.301Z,98411.31
2023-01-26T19:08:36.952Z,98415.03
2023-01-26T19:11:05.096Z,98425.63
2023-01-26T19:13:31.374Z,98424.22
2023-01-26T19:15:57.712Z,98425.63
2023-01-26T19:18:24.106Z,98422.28
2023-01-26T19:21:02.336Z,98427.56
2023-01-26T19:23:29.323Z,98422.19
2023-01-26T19:25:56.071Z,98426.19
2023-01-26T19:28:22.435Z,98432.81
2023-01-26T19:30:48.876Z,98418.50
2023-01-26T19:33:15.440Z,98418.34
2023-01-26T19:35:41.770Z,98422.09
2023-01-26T19:38:08.068Z,98422.47
2023-01-26T19:40:34.958Z,98424.69
2023-01-26T19:43:01.359Z,98419.84
2023-01-26T19:45:27.668Z,98418.06
2023-01-26T19:47:53.935Z,98425.53
2023-01-26T19:50:20.255Z,98423.00
2023-01-26T19:52:46.547Z,98423.69
2023-01-26T19:55:13.169Z,98419.16
2023-01-26T19:57:39.695Z,98432.13
2023-01-26T20:00:06.660Z,98429.25
2023-01-26T20:02:33.348Z,98432.84
2023-01-26T20:04:59.743Z,98430.38
2023-01-26T20:07:26.054Z,98426.50
2023-01-26T20:09:52.378Z,98424.59
2023-01-26T20:12:18.665Z,98423.78
2023-01-26T20:14:44.983Z,98426.53
2023-01-26T20:17:11.278Z,98425.44
2023-01-26T20:19:37.579Z,98427.66
2023-01-26T20:22:04.020Z,98420.63
2023-01-26T20:24:30.503Z,98429.97
2023-01-26T20:26:56.885Z,98426.00
2023-01-26T20:29:23.258Z,98427.91
2023-01-26T20:31:50.147Z,98429.56
2023-01-26T20:34:16.812Z,98434.78
2023-01-26T20:36:43.255Z,98425.44
2023-01-26T20:39:13.914Z,98426.00
2023-01-26T20:41:40.201Z,98434.00
2023-01-26T20:44:07.851Z,98443.09
2023-01-26T20:46:34.128Z,98441.44
2023-01-26T20:49:01.017Z,98437.16
2023-01-26T20:51:30.694Z,98444.72
2023-01-26T20:53:57.501Z,98443.50
2023-01-26T20:56:23.883Z,98441.97
2023-01-26T20:58:53.028Z,98442.13
2023-01-26T21:01:20.002Z,98446.69
2023-01-26T21:03:46.725Z,98443.38
2023-01-26T21:06:15.253Z,98433.59
2023-01-26T21:08:41.909Z,98435.22
2023-01-26T21:11:12.055Z,98430.56
2023-01-26T21:13:38.687Z,98433.88
2023-01-26T21:16:05.106Z,98438.00
2023-01-26T21:18:31.462Z,98432.63
2023-01-26T21:21:04.017Z,98430.16
2023-01-26T21:23:31.927Z,98439.25
2023-01-26T21:26:03.958Z,98433.72
2023-01-26T21:28:31.062Z,98438.00
2023-01-26T21:31:01.112Z,98425.34
2023-01-26T21:33:32.053Z,98437.84
2023-01-26T21:36:00.170Z,98436.63
2023-01-26T21:38:27.121Z,98429.91
2023-01-26T21:41:01.283Z,98431.53
2023-01-26T21:43:28.462Z,98438.44
2023-01-26T21:45:56.272Z,98425.59
2023-01-26T21:48:22.937Z,98425.59
2023-01-26T21:50:49.261Z,98427.66
2023-01-26T21:53:15.564Z,98425.47
2023-01-26T21:55:41.878Z,98425.47
2023-01-26T21:58:08.191Z,98415.25
2023-01-26T22:00:34.553Z,98412.78
2023-01-26T22:03:00.891Z,98410.31
2023-01-26T22:05:27.201Z,98407.97
2023-01-26T22:07:53.485Z,98409.47
2023-01-26T22:10:19.877Z,98405.91
2023-01-26T22:12:46.154Z,98410.84
2023-01-26T22:15:12.507Z,98403.81
2023-01-26T22:17:38.807Z,98404.34
2023-01-26T22:20:05.441Z,98401.31
2023-01-26T22:22:31.712Z,98405.72
2023-01-26T22:24:58.092Z,98407.53
2023-01-26T22:27:24.358Z,98412.75
2023-01-26T22:29:50.737Z,98419.25
2023-01-26T22:32:17.033Z,98409.03
2023-01-26T22:34:43.305Z,98408.59
2023-01-26T22:37:09.655Z,98417.16
2023-01-26T22:39:35.925Z,98413.88
2023-01-26T22:42:02.335Z,98409.34
2023-01-26T22:44:28.607Z,98405.59
2023-01-26T22:46:54.887Z,98400.25
2023-01-26T22:49:21.196Z,98399.56
2023-01-26T22:51:47.540Z,98402.91
2023-01-26T22:54:13.826Z,98396.41
2023-01-26T22:56:40.210Z,98396.84
2023-01-26T22:59:06.474Z,98403.44
2023-01-26T23:01:33.155Z,98398.75
2023-01-26T23:04:00.825Z,98401.06
2023-01-26T23:06:27.828Z,98398.47
2023-01-26T23:08:54.660Z,98403.28
2023-01-26T23:11:24.299Z,98401.78
2023-01-26T23:13:52.452Z,98402.75
2023-01-26T23:16:19.120Z,98401.78
2023-01-26T23:18:45.443Z,98396.53
2023-01-26T23:21:12.053Z,98392.00
2023-01-26T23:23:39.513Z,98390.63
2023-01-26T23:26:06.684Z,98390.22
2023-01-26T23:28:35.478Z,98394.91
2023-01-26T23:31:03.048Z,98392.97
2023-01-26T23:33:31.361Z,98392.69
2023-01-26T23:35:58.481Z,98383.19
2023-01-26T23:38:27.191Z,98390.47
2023-01-26T23:40:54.179Z,98396.25
2023-01-26T23:43:21.482Z,98394.44
2023-01-26T23:45:49.974Z,98388.94
2023-01-26T23:48:16.832Z,98384.94
2023-01-26T23:50:43.289Z,98392.66
2023-01-26T23:53:10.130Z,98381.25
2023-01-26T23:55:40.455Z,98377.25
2023-01-26T23:58:06.872Z,98376.97
